Time;durP1;ratioP1;P1;durP2;ratioP2;P2;SDS_P1;SDS_P2;PMS_P1;PMS_P2;Temp;Humidity;BMP_temperature;BMP_pressure;BME280_temperature;BME280_humidity;BME280_pressure;Samples;Min_cycle;Max_cycle;Signal;HPM_P1;HPM_P2
2022/05/26 00:01:09;;;;;;;11.38;8.85;;;14.30;99.90;;;;;;4947708;28;20051;-76
2022/05/26 00:03:38;;;;;;;12.32;9.20;;;14.30;99.90;;;;;;4947658;28;20059;-77
2022/05/26 00:06:06;;;;;;;10.52;9.23;;;14.20;99.90;;;;;;4944404;28;20031;-77
2022/05/26 00:08:32;;;;;;;14.38;9.98;;;14.20;99.90;;;;;;4947635;28;20392;-77
2022/05/26 00:10:58;;;;;;;12.68;9.27;;;14.20;99.90;;;;;;4946738;28;20035;-77
2022/05/26 00:13:25;;;;;;;13.20;9.88;;;14.20;99.90;;;;;;4947257;28;20031;-76
2022/05/26 00:15:51;;;;;;;11.63;9.25;;;14.20;99.90;;;;;;4947655;28;20503;-77
2022/05/26 00:18:16;;;;;;;12.05;10.15;;;14.20;99.90;;;;;;4946592;29;20051;-77
2022/05/26 00:20:42;;;;;;;12.63;9.68;;;14.10;99.90;;;;;;4944029;28;20453;-77
2022/05/26 00:23:08;;;;;;;12.48;9.40;;;14.10;99.90;;;;;;4945182;28;20039;-76
2022/05/26 00:25:34;;;;;;;13.60;9.70;;;14.10;99.90;;;;;;4948732;28;20019;-77
2022/05/26 00:27:59;;;;;;;10.18;8.63;;;14.10;99.90;;;;;;4946343;29;20055;-77
2022/05/26 00:30:25;;;;;;;10.13;8.85;;;14.10;99.90;;;;;;4947593;28;20058;-77
2022/05/26 00:32:50;;;;;;;11.43;9.02;;;14.10;99.90;;;;;;4947523;28;20035;-77
2022/05/26 00:35:16;;;;;;;12.23;9.05;;;14.10;99.90;;;;;;4931693;29;20031;-77
2022/05/26 00:37:42;;;;;;;10.48;8.55;;;14.10;99.90;;;;;;4947969;28;20035;-77
2022/05/26 00:40:10;;;;;;;13.40;9.00;;;14.10;99.90;;;;;;4947042;28;20110;-77
2022/05/26 00:42:36;;;;;;;10.60;9.10;;;14.10;99.90;;;;;;4944353;28;20050;-77
2022/05/26 00:45:02;;;;;;;13.15;10.10;;;14.10;99.90;;;;;;4945140;28;20027;-77
2022/05/26 00:47:34;;;;;;;15.15;8.80;;;14.10;99.90;;;;;;4947131;28;20062;-77
2022/05/26 00:50:07;;;;;;;12.80;9.13;;;14.10;99.90;;;;;;4946630;29;20027;-77
2022/05/26 00:52:39;;;;;;;11.05;8.98;;;14.10;99.90;;;;;;4943730;28;20027;-77
2022/05/26 00:55:10;;;;;;;11.85;8.70;;;14.10;99.90;;;;;;4946574;29;20189;-77
2022/05/26 00:57:39;;;;;;;11.10;8.60;;;14.10;99.90;;;;;;4947180;28;20039;-77
2022/05/26 01:00:15;;;;;;;12.77;8.75;;;14.10;99.90;;;;;;4945984;28;20031;-74
2022/05/26 01:03:06;;;;;;;12.38;9.27;;;14.10;99.90;;;;;;4943649;29;20400;-77
2022/05/26 01:05:41;;;;;;;11.77;8.80;;;14.20;99.90;;;;;;4924380;29;20039;-75
2022/05/26 01:08:14;;;;;;;16.00;9.68;;;14.20;99.90;;;;;;4942509;29;20031;-77
2022/05/26 01:10:40;;;;;;;11.55;9.63;;;14.20;99.90;;;;;;4944308;28;20031;-77
2022/05/26 01:13:06;;;;;;;13.50;9.23;;;14.20;99.90;;;;;;4946747;28;20025;-77
2022/05/26 01:15:36;;;;;;;16.10;10.35;;;14.20;99.90;;;;;;4946467;28;20046;-77
2022/05/26 01:18:21;;;;;;;13.73;10.20;;;14.20;99.90;;;;;;4943950;29;20118;-77
2022/05/26 01:21:16;;;;;;;17.25;11.27;;;14.20;99.90;;;;;;4947172;28;20028;-77
2022/05/26 01:24:00;;;;;;;13.75;10.30;;;14.20;99.90;;;;;;4946737;29;20039;-76
2022/05/26 01:26:35;;;;;;;11.95;10.43;;;14.30;99.90;;;;;;4947206;28;20555;-77
2022/05/26 01:29:43;;;;;;;16.35;11.48;;;14.30;99.90;;;;;;4945937;28;20505;-77
2022/05/26 01:32:36;;;;;;;16.20;11.20;;;14.30;99.90;;;;;;4944754;29;20035;-77
2022/05/26 01:35:18;;;;;;;18.73;10.40;;;14.30;99.90;;;;;;4947869;28;20027;-77
2022/05/26 01:37:52;;;;;;;17.83;11.47;;;14.20;99.90;;;;;;4944679;28;20562;-77
2022/05/26 01:40:39;;;;;;;16.52;10.48;;;14.20;99.90;;;;;;4946661;28;20416;-76
2022/05/26 01:43:28;;;;;;;17.27;11.60;;;14.20;99.90;;;;;;4945634;28;20042;-77
2022/05/26 01:46:16;;;;;;;20.38;12.45;;;14.20;99.90;;;;;;4942469;29;20033;-77
2022/05/26 01:49:04;;;;;;;21.40;12.48;;;14.20;99.90;;;;;;4945620;29;20027;-76
2022/05/26 01:51:35;;;;;;;18.55;11.55;;;14.20;99.90;;;;;;4944513;29;20106;-77
2022/05/26 01:54:05;;;;;;;19.23;11.82;;;14.20;99.90;;;;;;4947494;28;20267;-77
2022/05/26 01:56:58;;;;;;;19.55;11.68;;;14.30;99.90;;;;;;4945297;29;20027;-77
2022/05/26 01:59:30;;;;;;;15.80;10.30;;;14.30;99.90;;;;;;4945140;28;20558;-77
2022/05/26 02:02:02;;;;;;;18.08;11.18;;;14.30;99.90;;;;;;4943586;28;20047;-77
2022/05/26 02:04:36;;;;;;;19.95;11.57;;;14.40;99.90;;;;;;4947103;28;20466;-77
2022/05/26 02:07:14;;;;;;;20.42;11.57;;;14.40;99.90;;;;;;4945232;28;20041;-77
2022/05/26 02:09:42;;;;;;;16.25;11.40;;;14.40;99.90;;;;;;4943770;29;20420;-77
2022/05/26 02:12:14;;;;;;;21.60;12.25;;;14.30;99.90;;;;;;4947552;28;20392;-77
2022/05/26 02:14:45;;;;;;;22.48;11.98;;;14.40;99.90;;;;;;4929290;29;20035;-77
2022/05/26 02:17:14;;;;;;;20.53;11.47;;;14.40;99.90;;;;;;4940522;29;20043;-78
2022/05/26 02:19:59;;;;;;;22.70;12.93;;;14.40;99.90;;;;;;4944631;29;20249;-77
2022/05/26 02:22:51;;;;;;;19.55;11.98;;;14.40;99.90;;;;;;4944535;28;20066;-77
2022/05/26 02:25:20;;;;;;;18.88;12.18;;;14.30;99.90;;;;;;4949191;29;20399;-77
2022/05/26 02:27:51;;;;;;;19.67;11.80;;;14.40;99.90;;;;;;4946432;28;20042;-77
2022/05/26 02:30:17;;;;;;;18.65;12.13;;;14.30;99.90;;;;;;4949786;29;20162;-77
2022/05/26 02:32:47;;;;;;;21.10;11.80;;;14.40;99.90;;;;;;4951608;29;20038;-77
2022/05/26 02:35:21;;;;;;;24.25;11.98;;;14.40;99.90;;;;;;4946253;28;20042;-76
2022/05/26 02:37:54;;;;;;;19.05;12.25;;;14.30;99.90;;;;;;4949758;29;20047;-77
2022/05/26 02:40:20;;;;;;;22.90;12.10;;;14.40;99.90;;;;;;4949769;28;20038;-75
2022/05/26 02:42:47;;;;;;;25.27;12.10;;;14.40;99.90;;;;;;4950078;28;20091;-74
2022/05/26 02:45:15;;;;;;;26.77;12.48;;;14.40;99.90;;;;;;4950525;28;20059;-77
2022/05/26 02:48:07;;;;;;;20.85;11.80;;;14.40;99.90;;;;;;4950890;29;20135;-75
2022/05/26 02:51:05;;;;;;;19.15;10.55;;;14.40;99.90;;;;;;4947657;28;20019;-77
2022/05/26 02:53:56;;;;;;;20.50;10.82;;;14.40;99.90;;;;;;4948361;28;20034;-77
2022/05/26 02:56:56;;;;;;;24.05;12.35;;;14.30;99.90;;;;;;4920978;28;20035;-77
2022/05/26 02:59:50;;;;;;;20.20;11.77;;;14.30;99.90;;;;;;4946390;28;20054;-77
2022/05/26 03:02:42;;;;;;;20.83;11.48;;;14.20;99.90;;;;;;4948445;28;20514;-77
2022/05/26 03:05:27;;;;;;;21.17;10.05;;;14.20;99.90;;;;;;4948003;28;20043;-77
2022/05/26 03:07:56;;;;;;;24.17;11.85;;;14.20;99.90;;;;;;4950091;28;20039;-77
2022/05/26 03:10:27;;;;;;;27.77;11.48;;;14.20;99.90;;;;;;4946401;28;20431;-76
2022/05/26 03:12:57;;;;;;;21.58;10.38;;;14.20;99.90;;;;;;4947265;28;20387;-77
2022/05/26 03:15:22;;;;;;;21.70;10.30;;;14.20;99.90;;;;;;4947288;28;20031;-77
2022/05/26 03:17:48;;;;;;;22.30;10.38;;;14.10;99.90;;;;;;4946649;28;20034;-77
2022/05/26 03:20:14;;;;;;;23.30;10.27;;;14.10;99.90;;;;;;4946601;29;20027;-76
2022/05/26 03:22:39;;;;;;;21.42;10.68;;;14.10;99.90;;;;;;4948690;29;20042;-77
2022/05/26 03:25:06;;;;;;;25.83;11.20;;;14.10;99.90;;;;;;4948547;28;20035;-77
2022/05/26 03:27:32;;;;;;;21.95;10.50;;;14.10;99.90;;;;;;4949687;29;20070;-77
2022/05/26 03:29:58;;;;;;;22.50;9.77;;;14.10;99.90;;;;;;4947939;28;20035;-77
2022/05/26 03:32:25;;;;;;;26.88;11.65;;;14.10;99.90;;;;;;4947173;28;20031;-77
2022/05/26 03:43:05;;;;;;;20.30;9.80;;;14.10;99.90;;;;;;4945704;29;20082;-77
2022/05/26 03:45:33;;;;;;;29.40;10.32;;;14.10;99.90;;;;;;4948304;28;20440;-77
2022/05/26 03:47:59;;;;;;;22.25;9.52;;;14.10;99.90;;;;;;4947064;28;20037;-77
2022/05/26 03:50:25;;;;;;;20.85;9.07;;;14.10;99.90;;;;;;4949216;29;20033;-77
2022/05/26 03:52:51;;;;;;;22.25;8.70;;;14.10;99.90;;;;;;4932566;29;20080;-77
2022/05/26 03:55:18;;;;;;;19.02;8.38;;;14.10;99.90;;;;;;4949931;28;20102;-77
2022/05/26 03:57:44;;;;;;;25.75;8.70;;;14.10;99.90;;;;;;4945845;28;20556;-77
2022/05/26 04:00:12;;;;;;;24.55;9.20;;;14.00;99.90;;;;;;4948709;29;20122;-77
2022/05/26 04:02:38;;;;;;;25.60;9.23;;;14.00;99.90;;;;;;4943626;29;20367;-77
2022/05/26 04:05:04;;;;;;;33.88;10.38;;;14.00;99.90;;;;;;4946560;28;20102;-77
2022/05/26 04:07:30;;;;;;;24.55;7.65;;;14.00;99.90;;;;;;4947577;28;20039;-77
2022/05/26 04:09:56;;;;;;;24.00;8.55;;;14.00;99.90;;;;;;4948186;29;20032;-77
2022/05/26 04:12:21;;;;;;;26.42;8.70;;;13.90;99.90;;;;;;4948910;29;20034;-77
2022/05/26 04:14:47;;;;;;;26.80;7.90;;;13.90;99.90;;;;;;4949462;29;20449;-77
2022/05/26 04:17:12;;;;;;;30.25;8.50;;;13.90;99.90;;;;;;4948748;28;20034;-77
2022/05/26 04:19:41;;;;;;;21.73;8.07;;;13.90;99.90;;;;;;4946355;28;20106;-77
2022/05/26 04:22:15;;;;;;;23.25;7.63;;;14.00;99.90;;;;;;4948996;28;20464;-77
2022/05/26 04:24:41;;;;;;;21.35;7.32;;;14.00;99.90;;;;;;4948814;28;20032;-77
2022/05/26 04:27:07;;;;;;;20.60;7.78;;;14.00;99.90;;;;;;4945218;28;20061;-77
2022/05/26 04:29:34;;;;;;;27.92;7.65;;;14.10;99.90;;;;;;4945310;28;20392;-77
2022/05/26 04:32:00;;;;;;;29.98;7.88;;;14.20;99.90;;;;;;4944678;29;20027;-77
2022/05/26 04:34:27;;;;;;;20.58;7.43;;;14.20;99.90;;;;;;4945809;29;20047;-77
2022/05/26 04:36:52;;;;;;;26.17;8.20;;;14.20;99.90;;;;;;4947336;28;20023;-77
2022/05/26 04:39:18;;;;;;;21.38;7.63;;;14.20;99.90;;;;;;4947036;28;20027;-77
2022/05/26 04:41:45;;;;;;;24.52;7.43;;;14.30;99.90;;;;;;4947794;28;20117;-77
2022/05/26 04:44:12;;;;;;;22.13;7.13;;;14.20;99.90;;;;;;4942584;28;20031;-77
2022/05/26 04:46:38;;;;;;;20.52;8.27;;;14.30;99.90;;;;;;4947863;28;20035;-77
2022/05/26 04:49:04;;;;;;;19.92;7.03;;;14.20;99.90;;;;;;4946831;28;20033;-74
2022/05/26 04:51:31;;;;;;;26.90;7.00;;;14.20;99.90;;;;;;4943838;28;20118;-74
2022/05/26 04:53:56;;;;;;;24.55;6.97;;;14.20;99.90;;;;;;4949006;28;20031;-77
2022/05/26 04:56:23;;;;;;;24.65;7.68;;;14.20;99.90;;;;;;4949228;28;20042;-77
2022/05/26 04:58:50;;;;;;;24.80;8.07;;;14.20;99.90;;;;;;4939492;28;20039;-77
2022/05/26 05:01:17;;;;;;;25.25;7.80;;;14.20;99.90;;;;;;4946490;29;20035;-77
2022/05/26 05:03:43;;;;;;;22.73;6.63;;;14.30;99.90;;;;;;4948229;28;20058;-77
2022/05/26 05:06:09;;;;;;;23.25;7.25;;;14.50;99.90;;;;;;4944235;29;20059;-76
2022/05/26 05:08:35;;;;;;;25.77;7.63;;;14.60;99.90;;;;;;4944352;28;20046;-77
2022/05/26 05:11:01;;;;;;;22.33;7.07;;;14.60;99.90;;;;;;4944069;28;20491;-77
2022/05/26 05:13:27;;;;;;;28.42;6.57;;;14.70;99.90;;;;;;4931957;29;20023;-77
2022/05/26 05:16:18;;;;;;;20.25;6.75;;;14.80;99.90;;;;;;4947439;29;20398;-77
2022/05/26 05:18:47;;;;;;;23.15;6.13;;;14.90;99.90;;;;;;4942223;29;20109;-77
2022/05/26 05:21:17;;;;;;;25.27;5.53;;;14.90;99.90;;;;;;4944813;29;20488;-77
2022/05/26 05:23:48;;;;;;;24.70;6.03;;;14.90;99.90;;;;;;4948170;29;20032;-75
2022/05/26 05:26:18;;;;;;;18.58;5.63;;;15.10;99.90;;;;;;4945025;29;20472;-77
2022/05/26 05:28:49;;;;;;;21.45;5.60;;;15.00;99.90;;;;;;4943029;28;20129;-77
2022/05/26 05:31:26;;;;;;;17.65;5.32;;;15.10;99.90;;;;;;4946712;28;20027;-77
2022/05/26 05:34:06;;;;;;;21.83;5.18;;;15.10;99.90;;;;;;4946265;29;21558;-77
2022/05/26 05:36:34;;;;;;;19.33;5.53;;;15.20;99.90;;;;;;4946242;29;20551;-77
2022/05/26 05:39:02;;;;;;;19.10;4.95;;;15.20;99.90;;;;;;4943164;28;20113;-77
2022/05/26 05:41:29;;;;;;;19.13;4.88;;;15.20;99.90;;;;;;4947241;29;20098;-77
2022/05/26 05:43:57;;;;;;;18.15;4.95;;;15.30;99.90;;;;;;4947731;29;20031;-77
2022/05/26 05:46:23;;;;;;;25.75;5.05;;;15.30;99.90;;;;;;4941243;29;20098;-76
2022/05/26 05:48:49;;;;;;;20.27;4.47;;;15.40;99.90;;;;;;4943966;28;20447;-74
2022/05/26 05:51:16;;;;;;;19.15;4.07;;;15.40;99.90;;;;;;4947170;28;20055;-75
2022/05/26 05:53:45;;;;;;;23.13;5.20;;;15.50;99.90;;;;;;4947364;29;20077;-76
2022/05/26 05:56:11;;;;;;;20.45;5.57;;;15.50;99.90;;;;;;4944602;28;20396;-75
2022/05/26 05:58:36;;;;;;;21.98;4.68;;;15.60;99.90;;;;;;4948908;28;20031;-75
2022/05/26 06:01:02;;;;;;;20.02;4.75;;;15.60;99.90;;;;;;4952236;28;20031;-75
2022/05/26 06:03:32;;;;;;;18.80;4.65;;;15.70;99.90;;;;;;4950401;28;20391;-74
2022/05/26 06:06:02;;;;;;;14.63;4.20;;;15.70;99.90;;;;;;4950627;29;20066;-75
2022/05/26 06:08:28;;;;;;;26.23;4.90;;;15.70;99.90;;;;;;4951355;28;20035;-75
2022/05/26 06:10:54;;;;;;;20.88;4.07;;;15.80;99.90;;;;;;4949630;28;20030;-75
2022/05/26 06:13:19;;;;;;;17.30;3.80;;;15.80;99.90;;;;;;4954039;28;20039;-75
2022/05/26 06:15:46;;;;;;;21.23;4.63;;;15.90;99.90;;;;;;4954216;28;20039;-75
2022/05/26 06:18:16;;;;;;;19.20;3.85;;;16.10;99.90;;;;;;4950858;29;20158;-75
2022/05/26 06:20:42;;;;;;;19.40;3.72;;;16.10;99.90;;;;;;4948836;28;20411;-74
2022/05/26 06:23:07;;;;;;;19.83;3.92;;;16.10;99.90;;;;;;4951141;28;20039;-75
2022/05/26 06:25:33;;;;;;;26.55;5.10;;;16.10;99.90;;;;;;4952722;28;20487;-75
2022/05/26 06:30:43;;;;;;;20.85;4.40;;;16.30;99.90;;;;;;4952296;28;20513;-75
2022/05/26 06:38:41;;;;;;;18.70;4.40;;;16.70;99.90;;;;;;4949109;28;20046;-75
2022/05/26 06:43:53;;;;;;;21.13;4.38;;;16.70;99.90;;;;;;4955178;28;20534;-75
2022/05/26 06:46:19;;;;;;;22.33;3.90;;;16.70;99.90;;;;;;4953604;28;20023;-75
2022/05/26 06:48:45;;;;;;;11.73;3.78;;;16.80;99.90;;;;;;4953296;28;20468;-75
2022/05/26 06:51:11;;;;;;;20.50;3.78;;;16.90;99.90;;;;;;4949192;29;20103;-75
2022/05/26 06:53:38;;;;;;;20.30;4.03;;;16.90;99.90;;;;;;4954828;29;20138;-75
2022/05/26 06:56:04;;;;;;;20.50;3.95;;;17.00;99.90;;;;;;4935656;29;20027;-76
2022/05/26 06:58:31;;;;;;;12.48;2.97;;;17.10;99.90;;;;;;4949179;28;21896;-75
2022/05/26 07:00:57;;;;;;;11.90;2.92;;;17.10;99.90;;;;;;4947774;28;20015;-76
2022/05/26 07:03:22;;;;;;;13.23;3.20;;;17.10;99.90;;;;;;4951428;29;20062;-76
2022/05/26 07:05:50;;;;;;;13.60;3.00;;;17.10;99.90;;;;;;4948324;28;20042;-76
2022/05/26 07:08:16;;;;;;;12.45;2.88;;;17.20;99.90;;;;;;4950820;28;20098;-76
2022/05/26 07:10:42;;;;;;;14.73;3.53;;;17.30;99.90;;;;;;4948763;28;20023;-76
2022/05/26 07:13:08;;;;;;;16.48;3.75;;;17.30;99.90;;;;;;4953067;28;20027;-77
2022/05/26 07:15:33;;;;;;;11.10;2.95;;;17.40;99.90;;;;;;4949419;28;20034;-77
2022/05/26 07:17:59;;;;;;;11.70;3.08;;;17.50;99.90;;;;;;4930836;29;20368;-77
2022/05/26 07:20:24;;;;;;;16.70;3.22;;;17.50;99.90;;;;;;4948871;28;20125;-77
2022/05/26 07:22:50;;;;;;;13.05;2.75;;;17.50;99.90;;;;;;4950747;28;20071;-76
2022/05/26 07:25:15;;;;;;;10.45;2.45;;;17.60;99.90;;;;;;4951879;29;20110;-74
2022/05/26 07:27:42;;;;;;;11.95;2.92;;;17.70;99.90;;;;;;4949246;28;20114;-75
2022/05/26 07:30:10;;;;;;;10.95;2.60;;;17.70;99.90;;;;;;4950389;28;20161;-75
2022/05/26 07:32:35;;;;;;;13.55;3.00;;;17.70;99.90;;;;;;4952677;28;20093;-75
2022/05/26 07:35:01;;;;;;;17.80;3.97;;;17.80;99.90;;;;;;4948381;28;20046;-76
2022/05/26 07:43:17;;;;;;;7.65;1.58;;;18.20;99.90;;;;;;4894096;29;20169;-75
2022/05/26 07:45:42;;;;;;;9.50;2.53;;;18.40;99.90;;;;;;4905043;29;20046;-75
2022/05/26 07:48:08;;;;;;;11.27;2.08;;;18.50;99.90;;;;;;4927910;29;20038;-75
2022/05/26 07:50:34;;;;;;;9.93;2.30;;;18.50;99.90;;;;;;4957589;29;20036;-75
2022/05/26 07:52:59;;;;;;;6.05;1.75;;;18.40;99.90;;;;;;4956079;28;20038;-75
2022/05/26 07:55:25;;;;;;;7.88;2.25;;;18.40;99.90;;;;;;4951036;28;20058;-75
2022/05/26 07:57:53;;;;;;;5.88;1.60;;;18.60;99.90;;;;;;4953606;29;20023;-74
2022/05/26 08:00:19;;;;;;;6.10;1.00;;;18.60;99.90;;;;;;4931418;28;20020;-76
2022/05/26 08:02:45;;;;;;;9.20;0.90;;;18.60;99.90;;;;;;4948671;28;20054;-76
2022/05/26 08:05:12;;;;;;;7.00;1.15;;;18.60;99.90;;;;;;4952434;29;20031;-75
2022/05/26 08:07:38;;;;;;;8.48;1.27;;;18.70;99.90;;;;;;4954500;28;20031;-75
2022/05/26 08:10:06;;;;;;;8.65;1.48;;;18.90;99.90;;;;;;4953856;29;20364;-75
2022/05/26 08:12:32;;;;;;;6.28;1.17;;;19.00;99.90;;;;;;4952587;28;20042;-75
2022/05/26 08:14:58;;;;;;;8.80;2.00;;;19.20;99.90;;;;;;4957732;29;20024;-75
2022/05/26 08:17:24;;;;;;;10.20;1.98;;;19.30;99.90;;;;;;4956250;29;20094;-75
2022/05/26 08:19:50;;;;;;;5.60;1.17;;;19.10;99.90;;;;;;4943630;29;20027;-75
2022/05/26 08:22:17;;;;;;;6.30;2.00;;;18.90;99.90;;;;;;4953452;28;20054;-75
2022/05/26 08:24:49;;;;;;;7.53;2.10;;;18.70;99.90;;;;;;4955920;28;20028;-75
2022/05/26 08:27:15;;;;;;;5.97;1.48;;;18.60;99.90;;;;;;4937608;28;20483;-75
2022/05/26 08:29:41;;;;;;;9.15;2.20;;;18.70;99.90;;;;;;4950118;29;20039;-76
2022/05/26 08:32:07;;;;;;;9.02;1.83;;;18.80;99.90;;;;;;4944095;28;20023;-75
2022/05/26 08:34:33;;;;;;;9.95;2.05;;;18.90;99.90;;;;;;4950110;28;20122;-76
2022/05/26 08:36:58;;;;;;;7.60;1.50;;;18.80;99.90;;;;;;4946882;28;20563;-75
2022/05/26 08:39:24;;;;;;;5.55;1.20;;;18.70;99.90;;;;;;4940195;28;20036;-76
2022/05/26 08:41:52;;;;;;;8.95;1.90;;;18.60;99.90;;;;;;4940717;29;20072;-76
2022/05/26 08:44:37;;;;;;;9.85;2.00;;;18.60;99.90;;;;;;4946029;29;20058;-76
2022/05/26 08:47:16;;;;;;;8.05;1.20;;;18.70;99.90;;;;;;4942035;28;20698;-75
2022/05/26 08:50:20;;;;;;;7.03;1.65;;;18.60;99.90;;;;;;4946529;28;20111;-75
2022/05/26 08:53:24;;;;;;;7.05;1.67;;;18.50;99.90;;;;;;4944505;29;20074;-75
2022/05/26 08:55:52;;;;;;;8.50;1.48;;;18.30;99.90;;;;;;4940452;29;20071;-74
2022/05/26 08:58:22;;;;;;;6.28;1.35;;;18.20;99.90;;;;;;4946890;28;20511;-75
2022/05/26 09:00:49;;;;;;;8.10;1.88;;;18.30;99.90;;;;;;4944075;28;20480;-74
2022/05/26 09:03:36;;;;;;;7.15;1.00;;;18.60;99.90;;;;;;4946014;28;20027;-75
2022/05/26 09:06:19;;;;;;;5.20;0.90;;;18.80;99.90;;;;;;4943002;29;20070;-76
2022/05/26 09:14:34;;;;;;;6.32;0.70;;;19.60;99.90;;;;;;4945044;28;20055;-76
2022/05/26 09:17:04;;;;;;;3.05;0.50;;;19.70;99.90;;;;;;4945321;29;20730;-75
2022/05/26 09:19:48;;;;;;;5.18;0.80;;;19.60;99.90;;;;;;4946004;28;20849;-76
2022/05/26 09:22:44;;;;;;;7.28;1.05;;;19.60;99.90;;;;;;4949084;28;20396;-76
2022/05/26 09:25:14;;;;;;;5.05;0.52;;;19.90;99.90;;;;;;4942138;28;20050;-76
2022/05/26 09:27:50;;;;;;;3.85;0.52;;;20.10;99.90;;;;;;4942995;28;20368;-76
2022/05/26 09:30:26;;;;;;;5.07;0.80;;;20.00;99.80;;;;;;4946614;28;20589;-76
2022/05/26 09:32:53;;;;;;;8.10;0.85;;;19.90;99.90;;;;;;4946355;28;20027;-76
2022/05/26 09:35:18;;;;;;;7.50;0.52;;;20.10;99.90;;;;;;4948740;29;20028;-76
2022/05/26 09:37:47;;;;;;;3.17;0.50;;;20.30;99.80;;;;;;4940286;28;20035;-76
2022/05/26 09:40:21;;;;;;;5.85;0.50;;;20.50;99.10;;;;;;4941538;28;20510;-76
2022/05/26 09:42:55;;;;;;;5.45;0.80;;;20.60;98.30;;;;;;4941072;28;20521;-76
2022/05/26 09:45:21;;;;;;;5.95;0.60;;;20.60;97.60;;;;;;4944367;28;20027;-76
2022/05/26 09:47:57;;;;;;;6.03;0.52;;;20.70;96.80;;;;;;4946726;28;20110;-75
2022/05/26 09:50:37;;;;;;;5.03;0.68;;;20.80;96.80;;;;;;4945003;28;20447;-76
2022/05/26 09:53:09;;;;;;;4.10;0.40;;;20.90;96.10;;;;;;4941265;28;20031;-76
2022/05/26 09:55:44;;;;;;;4.60;0.60;;;20.50;95.90;;;;;;4946112;29;20452;-75
2022/05/26 09:58:12;;;;;;;7.72;0.50;;;20.20;96.20;;;;;;4934366;28;20105;-76
2022/05/26 10:00:39;;;;;;;5.90;0.40;;;19.90;96.90;;;;;;4943913;29;20027;-75
2022/05/26 10:03:14;;;;;;;3.95;0.50;;;19.60;97.00;;;;;;4945322;29;20488;-75
2022/05/26 10:05:54;;;;;;;3.15;0.50;;;19.60;97.30;;;;;;4945662;29;20083;-76
2022/05/26 10:08:35;;;;;;;9.60;0.80;;;19.90;97.20;;;;;;4946235;28;20035;-76
2022/05/26 10:11:19;;;;;;;3.47;0.60;;;19.90;96.70;;;;;;4945770;28;20251;-75
2022/05/26 10:14:13;;;;;;;3.10;0.40;;;19.90;96.70;;;;;;4941586;29;20034;-75
2022/05/26 10:16:47;;;;;;;4.63;0.47;;;19.90;96.60;;;;;;4939717;28;20034;-76
2022/05/26 10:19:28;;;;;;;4.07;0.50;;;19.90;96.10;;;;;;4946137;29;20034;-75
2022/05/26 10:22:02;;;;;;;4.80;0.40;;;19.70;96.40;;;;;;4942631;28;20649;-75
2022/05/26 10:24:36;;;;;;;4.47;0.45;;;19.80;96.80;;;;;;4939819;28;20035;-75
2022/05/26 10:27:20;;;;;;;3.10;0.30;;;20.00;96.10;;;;;;4943295;28;20030;-75
2022/05/26 10:30:35;;;;;;;5.32;0.60;;;20.10;94.90;;;;;;4943108;28;20077;-75
2022/05/26 10:33:15;;;;;;;5.03;0.93;;;20.10;93.60;;;;;;4938974;28;20059;-76
2022/05/26 10:36:12;;;;;;;3.60;0.50;;;20.00;94.00;;;;;;4943346;29;20027;-75
2022/05/26 10:39:05;;;;;;;5.63;0.70;;;19.90;94.70;;;;;;4944441;29;20054;-75
2022/05/26 10:41:51;;;;;;;5.78;1.02;;;20.20;95.10;;;;;;4942265;28;20472;-75
2022/05/26 10:44:35;;;;;;;3.60;0.50;;;20.50;94.50;;;;;;4945312;28;20051;-75
2022/05/26 10:47:12;;;;;;;5.47;0.70;;;20.70;94.70;;;;;;4948899;28;20027;-75
2022/05/26 10:49:42;;;;;;;3.40;0.50;;;20.70;93.80;;;;;;4927814;29;20035;-76
2022/05/26 10:52:47;;;;;;;4.68;0.50;;;20.60;93.30;;;;;;4947725;28;20027;-75
2022/05/26 10:55:20;;;;;;;1.92;0.30;;;20.50;93.70;;;;;;4873674;29;20481;-75
2022/05/26 10:58:02;;;;;;;3.08;0.40;;;20.70;94.00;;;;;;4940703;28;20096;-74
2022/05/26 11:00:30;;;;;;;4.47;0.50;;;20.80;92.80;;;;;;4927437;29;20407;-75
2022/05/26 11:03:35;;;;;;;4.53;0.50;;;20.90;92.90;;;;;;4949383;28;20048;-75
2022/05/26 11:06:30;;;;;;;3.92;0.68;;;21.00;92.50;;;;;;4925701;28;20071;-75
2022/05/26 11:09:22;;;;;;;5.10;0.63;;;20.80;92.80;;;;;;4942088;28;20039;-75
2022/05/26 11:11:57;;;;;;;3.38;0.88;;;20.70;93.80;;;;;;4947537;29;20070;-75
2022/05/26 11:17:33;;;;;;;4.70;0.40;;;21.00;92.70;;;;;;4947936;29;20062;-75
2022/05/26 11:20:21;;;;;;;5.20;0.70;;;21.10;92.10;;;;;;4944813;28;20109;-75
2022/05/26 11:22:49;;;;;;;4.70;0.88;;;20.90;91.70;;;;;;4945542;28;20050;-75
2022/05/26 11:25:20;;;;;;;6.72;0.80;;;20.70;91.70;;;;;;4946555;28;20028;-75
2022/05/26 11:28:19;;;;;;;4.00;0.60;;;20.60;92.60;;;;;;4943811;28;20039;-76
2022/05/26 11:36:50;;;;;;;4.10;0.50;;;21.40;92.30;;;;;;4945474;28;20049;-75
2022/05/26 11:39:31;;;;;;;4.43;0.47;;;21.50;91.70;;;;;;4942533;28;20039;-76
2022/05/26 11:42:29;;;;;;;5.13;1.08;;;21.50;90.80;;;;;;4939892;28;20047;-75
2022/05/26 11:45:15;;;;;;;6.72;0.70;;;21.30;91.00;;;;;;4943251;28;20522;-76
2022/05/26 11:47:57;;;;;;;3.85;0.60;;;21.30;92.00;;;;;;4944946;28;20039;-76
2022/05/26 11:51:16;;;;;;;4.68;0.50;;;21.50;92.10;;;;;;4945344;28;20062;-76
2022/05/26 11:53:44;;;;;;;5.25;0.70;;;21.70;91.20;;;;;;4938000;29;20062;-76
2022/05/26 11:56:29;;;;;;;6.63;0.65;;;21.80;90.90;;;;;;4939204;29;20032;-76
2022/05/26 11:59:20;;;;;;;5.00;0.40;;;21.90;90.60;;;;;;4952482;29;20463;-76
2022/05/26 12:02:06;;;;;;;4.55;0.70;;;21.90;89.90;;;;;;4944822;28;20195;-76
2022/05/26 12:04:37;;;;;;;4.10;0.50;;;21.80;88.90;;;;;;4937058;29;20062;-75
2022/05/26 12:07:34;;;;;;;4.38;0.38;;;21.70;88.20;;;;;;4947800;28;20110;-76
2022/05/26 12:10:13;;;;;;;3.33;0.52;;;21.70;88.50;;;;;;4940296;29;20074;-76
2022/05/26 12:12:39;;;;;;;5.10;0.73;;;21.70;89.20;;;;;;4939595;28;20444;-76
2022/05/26 12:15:14;;;;;;;2.78;0.40;;;21.70;89.40;;;;;;4941814;28;20070;-76
2022/05/26 12:17:48;;;;;;;3.72;0.40;;;21.70;88.10;;;;;;4948534;28;20067;-76
2022/05/26 12:20:13;;;;;;;4.53;0.35;;;21.50;88.40;;;;;;4953969;29;20365;-76
2022/05/26 12:22:55;;;;;;;2.28;0.30;;;21.40;88.70;;;;;;4952186;28;20041;-76
2022/05/26 12:25:25;;;;;;;3.93;0.50;;;21.40;88.70;;;;;;4952459;28;20142;-76
2022/05/26 12:28:02;;;;;;;7.07;0.50;;;21.30;88.50;;;;;;4941592;29;20031;-76
2022/05/26 12:30:46;;;;;;;2.72;0.30;;;21.30;88.90;;;;;;4946441;28;20114;-76
2022/05/26 12:33:21;;;;;;;5.03;0.40;;;21.40;89.10;;;;;;4941144;28;20539;-76
2022/05/26 12:36:13;;;;;;;5.38;0.50;;;21.40;88.90;;;;;;4946813;28;20515;-76
2022/05/26 12:38:45;;;;;;;5.00;0.60;;;21.40;88.60;;;;;;4942676;29;20038;-76
2022/05/26 12:41:38;;;;;;;3.72;0.40;;;21.30;88.60;;;;;;4945652;29;20028;-76
2022/05/26 12:44:22;;;;;;;;;;;21.30;88.50;;;;;;4952919;28;20114;-76
2022/05/26 12:47:06;;;;;;;9.02;1.30;;;21.30;88.80;;;;;;4932557;29;19910;-75
2022/05/26 12:50:04;;;;;;;4.90;0.70;;;21.40;89.40;;;;;;4944400;28;20023;-75
2022/05/26 12:52:39;;;;;;;4.72;0.68;;;21.60;89.50;;;;;;4950789;28;20031;-75
2022/05/26 12:55:23;;;;;;;6.20;0.95;;;21.80;88.80;;;;;;4947238;28;20027;-75
2022/05/26 12:58:05;;;;;;;3.55;0.60;;;21.80;88.20;;;;;;4938778;28;20027;-76
2022/05/26 13:00:37;;;;;;;8.80;1.33;;;21.80;86.70;;;;;;4944398;29;20031;-76
2022/05/26 13:03:09;;;;;;;3.22;1.17;;;21.80;86.40;;;;;;4934385;29;20516;-75
2022/05/26 13:05:39;;;;;;;6.32;0.80;;;21.80;87.30;;;;;;4950419;29;20035;-75
2022/05/26 13:08:11;;;;;;;4.03;0.80;;;21.90;87.80;;;;;;4947540;28;20030;-76
2022/05/26 13:10:40;;;;;;;6.53;0.98;;;22.00;87.70;;;;;;4951577;29;20062;-75
2022/05/26 13:13:21;;;;;;;5.00;0.90;;;22.10;88.20;;;;;;4948341;28;20546;-76
2022/05/26 13:15:48;;;;;;;5.90;1.40;;;22.30;88.70;;;;;;4948810;28;20154;-75
2022/05/26 13:18:20;;;;;;;7.30;1.33;;;22.30;86.20;;;;;;4948878;29;20047;-75
2022/05/26 13:20:45;;;;;;;9.25;1.38;;;22.40;86.40;;;;;;4953603;29;20027;-75
2022/05/26 13:23:11;;;;;;;8.38;1.60;;;22.40;86.50;;;;;;4943956;28;20518;-76
2022/05/26 13:25:38;;;;;;;7.57;1.20;;;22.50;86.30;;;;;;4943569;28;20082;-76
2022/05/26 13:28:09;;;;;;;9.02;1.80;;;22.40;86.30;;;;;;4944407;28;20032;-75
2022/05/26 13:33:38;;;;;;;6.43;1.92;;;22.40;86.40;;;;;;4943048;28;20105;-75
2022/05/26 13:36:05;;;;;;;8.10;2.65;;;22.40;87.20;;;;;;4944104;29;20035;-75
2022/05/26 13:38:46;;;;;;;7.95;2.70;;;22.30;87.10;;;;;;4949541;29;20058;-75
2022/05/26 13:41:31;;;;;;;7.55;2.38;;;22.20;87.80;;;;;;4949324;28;20406;-76
2022/05/26 13:44:00;;;;;;;8.35;2.60;;;22.50;88.60;;;;;;4941834;29;20488;-77
2022/05/26 13:46:36;;;;;;;6.60;2.33;;;22.70;87.80;;;;;;4944833;28;20035;-75
2022/05/26 13:49:26;;;;;;;8.73;3.03;;;22.80;86.40;;;;;;4942740;28;20062;-76
2022/05/26 13:51:54;;;;;;;9.05;3.13;;;22.80;85.50;;;;;;4934657;28;20063;-75
2022/05/26 13:55:06;;;;;;;7.38;2.80;;;22.80;86.20;;;;;;4949757;29;20500;-76